Delta Virtual Airport Information Service

Las Vegas McCarran International Airport

ICAO: KLAS Country: United States
Latitude: 36.0801 Longitude: -115.152
Latest Arrival : SWA3877 (E) (KDEN-KLAS) Latest Departure : SWA909 (1F) (KLAS-KBUR)


WX CaptureLIVE
Data provided by noaa.gov | Fetched at 09:20:56

METAR : KLAS 041356Z 23003KT 10SM CLR 29/M07 A2990 RMK AO2 SLP093 HZ AND FU DSNT NW-N-E T02891067

TAF : KLAS 041120Z 0412/0518 20008KT P6SM SKC FM041400 VRB05KT P6SM SKC FM041800 10007KT P6SM FEW250 FM042100 20012G18KT P6SM FEW250 FM050300 20010KT P6SM SKC FM051400 VRB05KT P6SM SKC


Runway Data for KLAS
Data provided by openaviationdata.com

Runway ID Mag Var Hdg Length Elevation Surface ILS Freq ILS Id ILS Slope
01L 15 8993 ft 2114 ft Concrete 110.1 ICUA 3
01R 15 9783 ft 2114 ft Asphalt -- -- --
07L 15 74° 14495 ft 2114 ft Asphalt -- -- --
07R 15 74° 10512 ft 2114 ft Asphalt -- -- --
19L 15 189° 9783 ft 2114 ft Asphalt -- -- --
19R 15 189° 8993 ft 2114 ft Concrete -- -- --
25L 15 254° 10512 ft 2114 ft Asphalt 111.75 IRLE 3
25R 15 254° 14495 ft 2114 ft Asphalt 110.3 ILAS 3

Las Vegas McCarran International Airport, United States
Use only for reference purposes



Not for navigational purposes.